Time;durP1;ratioP1;P1;durP2;ratioP2;P2;SDS_P1;SDS_P2;PMS_P1;PMS_P2;Temp;Humidity;BMP_temperature;BMP_pressure;BME280_temperature;BME280_humidity;BME280_pressure;Samples;Min_cycle;Max_cycle;Signal;HPM_P1;HPM_P2
2021/09/19 00:00:27;;;;;;;11.90;10.30;;;10.20;99.90;;;11.75;60.02;93848.97;4973174;28;20283;-74
2021/09/19 00:02:53;;;;;;;10.70;9.60;;;10.60;99.90;;;11.75;59.99;93847.09;4976673;28;20221;-75
2021/09/19 00:05:19;;;;;;;10.73;8.77;;;10.60;99.90;;;11.73;59.87;93835.16;4973614;28;20237;-75
2021/09/19 00:07:48;;;;;;;10.97;9.20;;;10.80;99.90;;;11.77;60.26;93846.84;4991415;28;20271;-75
2021/09/19 00:10:17;;;;;;;10.53;8.97;;;10.80;99.90;;;11.75;60.28;93849.75;4986626;28;20257;-75
2021/09/19 00:12:44;;;;;;;9.37;8.40;;;10.60;99.90;;;11.71;60.25;93842.63;4974505;28;20210;-75
2021/09/19 00:15:16;;;;;;;9.80;8.80;;;10.70;99.90;;;11.66;60.35;93843.41;5001147;28;20218;-76
2021/09/19 00:17:42;;;;;;;12.43;9.60;;;10.30;99.90;;;11.64;60.62;93837.56;4990954;28;20211;-75
2021/09/19 00:20:10;;;;;;;11.20;10.00;;;10.40;99.90;;;11.68;60.93;93827.97;4986120;28;20221;-76
2021/09/19 00:22:39;;;;;;;11.07;9.67;;;10.60;99.90;;;11.65;61.04;93825.88;5009419;28;20225;-76
2021/09/19 00:25:08;;;;;;;12.70;9.90;;;10.40;99.90;;;11.70;60.77;93825.06;4987517;28;20746;-76
2021/09/19 00:27:34;;;;;;;11.30;10.20;;;10.70;99.90;;;11.76;60.79;93829.31;4975525;28;20228;-75
2021/09/19 00:30:00;;;;;;;14.30;10.50;;;10.50;99.90;;;11.83;61.31;93822.63;4957859;28;20226;-75
2021/09/19 00:32:28;;;;;;;12.40;10.80;;;10.70;99.90;;;11.89;60.98;93823.41;4978096;28;20229;-76
2021/09/19 00:34:54;;;;;;;11.37;10.27;;;10.90;99.90;;;11.91;61.63;93809.88;5009980;28;20242;-75
2021/09/19 00:37:20;;;;;;;12.93;10.87;;;11.00;99.90;;;11.93;61.77;93811.16;5011926;28;20243;-75
2021/09/19 00:39:49;;;;;;;11.80;9.70;;;11.00;99.90;;;11.98;61.84;93803.19;5012905;28;20804;-76
2021/09/19 00:42:17;;;;;;;11.90;10.23;;;11.20;99.90;;;11.97;61.54;93812.22;4994990;28;20250;-75
2021/09/19 00:44:43;;;;;;;13.27;10.60;;;11.00;99.90;;;11.93;61.69;93811.16;4993111;28;20230;-76
2021/09/19 00:47:09;;;;;;;10.83;9.73;;;10.90;99.90;;;11.94;62.17;93810.09;4993836;28;20209;-76
2021/09/19 00:49:37;;;;;;;11.43;10.23;;;11.20;99.90;;;11.93;62.22;93808.50;4979917;28;20214;-76
2021/09/19 00:52:04;;;;;;;11.30;10.10;;;10.70;99.90;;;11.98;62.17;93813.00;5007454;28;20222;-75
2021/09/19 00:54:40;;;;;;;15.10;10.50;;;11.10;99.90;;;12.01;61.83;93815.13;4996380;28;20205;-75
2021/09/19 00:57:08;;;;;;;13.27;10.40;;;11.00;99.90;;;12.15;61.97;93816.91;4975899;28;20533;-76
2021/09/19 00:59:39;;;;;;;11.83;10.63;;;11.20;99.90;;;12.21;62.39;93807.00;5006303;28;20296;-76
2021/09/19 01:02:09;;;;;;;12.73;11.43;;;11.10;99.90;;;12.24;62.29;93790.50;5008920;28;20219;-75
2021/09/19 01:04:35;;;;;;;13.70;11.27;;;11.50;99.90;;;12.30;62.59;93784.88;5012249;28;20233;-76
2021/09/19 01:07:01;;;;;;;14.80;10.73;;;11.20;99.90;;;12.31;62.76;93777.72;4974418;28;20239;-76
2021/09/19 01:09:30;;;;;;;12.27;10.97;;;11.00;99.90;;;12.37;62.53;93787.22;4978999;28;20234;-76
2021/09/19 01:11:56;;;;;;;11.80;9.97;;;11.20;99.90;;;12.38;62.73;93780.84;4988643;28;20237;-76
2021/09/19 01:14:24;;;;;;;11.13;9.87;;;11.40;99.90;;;12.42;62.70;93779.22;4996082;28;20205;-76
2021/09/19 01:16:50;;;;;;;11.57;10.03;;;11.60;99.90;;;12.43;63.26;93780.78;4991434;28;20213;-76
2021/09/19 01:19:21;;;;;;;12.57;10.87;;;11.40;99.90;;;12.58;62.94;93798.50;4994325;28;20211;-74
2021/09/19 01:21:48;;;;;;;11.87;10.23;;;11.90;99.90;;;12.55;62.76;93780.44;4994134;28;20227;-75
2021/09/19 01:24:15;;;;;;;11.43;10.00;;;11.30;99.90;;;12.54;63.31;93787.63;4977630;28;20226;-75
2021/09/19 01:26:44;;;;;;;9.73;8.73;;;11.40;99.90;;;12.51;63.08;93774.09;4963074;28;20317;-74
2021/09/19 01:29:11;;;;;;;9.47;8.57;;;11.40;99.90;;;12.44;63.82;93766.44;4976562;28;20232;-74
2021/09/19 01:31:38;;;;;;;8.33;7.53;;;11.20;99.90;;;12.38;63.34;93759.59;4958689;28;20228;-75
2021/09/19 01:34:07;;;;;;;10.07;7.77;;;;;;;12.30;63.28;93763.63;4989962;28;20220;-75
2021/09/19 01:36:40;;;;;;;8.50;7.60;;;11.30;99.90;;;12.33;63.39;93773.69;4991798;28;20222;-75
2021/09/19 01:39:08;;;;;;;8.97;8.17;;;11.10;99.90;;;12.20;63.90;93758.38;4977139;28;20276;-75
2021/09/19 01:41:35;;;;;;;10.37;9.37;;;11.20;99.90;;;12.07;64.06;93753.72;4970866;28;20681;-76
2021/09/19 01:44:04;;;;;;;11.17;10.00;;;11.10;99.90;;;12.14;63.62;93748.09;4972420;28;20354;-76
2021/09/19 01:46:33;;;;;;;11.47;10.27;;;;;;;12.11;63.82;93744.13;4995370;28;20204;-75
2021/09/19 01:49:05;;;;;;;12.03;10.83;;;11.20;99.90;;;12.16;63.84;93738.75;4975155;28;20543;-75
2021/09/19 01:51:30;;;;;;;14.60;11.70;;;11.10;99.90;;;12.13;64.08;93736.66;4994692;28;20214;-75
2021/09/19 01:53:57;;;;;;;13.23;11.93;;;11.20;99.90;;;12.12;64.09;93739.59;5009976;28;20216;-76
2021/09/19 01:56:24;;;;;;;12.90;11.70;;;11.30;99.90;;;12.16;64.00;93744.06;4994054;28;20297;-76
2021/09/19 01:58:57;;;;;;;12.97;11.67;;;11.00;99.90;;;12.13;64.72;93746.50;4991364;28;20214;-75
2021/09/19 02:01:24;;;;;;;12.27;10.13;;;11.10;99.90;;;12.17;64.15;93731.59;5018730;28;20223;-75
2021/09/19 02:03:51;;;;;;;10.37;9.37;;;11.00;99.90;;;12.18;64.23;93720.69;4977611;28;20221;-75
2021/09/19 02:06:19;;;;;;;10.60;9.50;;;;;;;12.16;64.58;93727.34;4996217;28;20694;-75
2021/09/19 02:08:48;;;;;;;8.90;8.10;;;10.90;99.90;;;12.05;64.59;93721.34;4960567;28;20260;-76
2021/09/19 02:11:15;;;;;;;9.77;8.87;;;11.00;99.90;;;11.92;64.45;93721.94;4995247;28;20320;-76
2021/09/19 02:13:45;;;;;;;11.10;10.00;;;10.90;99.90;;;11.97;64.76;93727.22;4989377;28;20676;-76
2021/09/19 02:16:12;;;;;;;10.50;9.47;;;11.30;99.90;;;11.93;64.78;93706.78;5010195;28;20404;-76
2021/09/19 02:18:38;;;;;;;10.70;9.70;;;10.80;99.90;;;11.83;65.12;93711.13;4989716;28;20206;-76
2021/09/19 02:21:09;;;;;;;10.97;9.80;;;10.90;99.90;;;11.81;64.56;93717.78;4976467;28;20247;-76
2021/09/19 02:23:37;;;;;;;14.67;10.30;;;10.70;99.90;;;11.74;64.63;93706.69;4970110;28;20240;-75
2021/09/19 02:26:04;;;;;;;11.37;9.73;;;10.70;99.90;;;11.77;64.72;93704.25;4993876;28;20266;-76
2021/09/19 02:28:32;;;;;;;12.83;9.73;;;10.80;99.90;;;11.72;65.12;93698.97;4979492;28;20208;-76
2021/09/19 02:31:01;;;;;;;10.43;9.43;;;10.60;99.90;;;11.75;65.20;93697.66;4997317;28;20226;-76
2021/09/19 02:33:33;;;;;;;12.17;9.40;;;10.90;99.90;;;11.72;64.82;93703.50;4981418;28;20212;-76
2021/09/19 02:36:02;;;;;;;11.30;10.20;;;10.70;99.90;;;11.71;65.26;93712.53;4966364;28;20253;-75
2021/09/19 02:38:28;;;;;;;11.20;10.10;;;;;;;11.65;65.12;93700.34;4981912;28;20216;-74
2021/09/19 02:40:54;;;;;;;11.47;10.13;;;10.80;99.90;;;11.66;65.27;93709.88;4998478;28;20759;-75
2021/09/19 02:43:22;;;;;;;10.50;9.50;;;10.40;99.90;;;11.63;65.13;93726.34;4998463;28;20212;-75
2021/09/19 02:45:53;;;;;;;10.50;9.40;;;10.60;99.90;;;11.61;65.31;93713.38;4981926;28;20344;-75
2021/09/19 02:48:19;;;;;;;12.37;9.40;;;11.10;99.90;;;11.63;65.22;93719.19;4998759;28;20212;-75
2021/09/19 02:50:45;;;;;;;10.83;9.77;;;11.10;99.90;;;11.57;65.22;93725.59;4996466;28;20743;-74
2021/09/19 02:53:11;;;;;;;11.07;9.97;;;10.30;99.90;;;11.46;65.40;93716.09;4982761;28;20222;-75
2021/09/19 02:55:37;;;;;;;12.50;10.70;;;10.30;99.90;;;11.43;65.70;93711.34;5006325;28;20247;-76
2021/09/19 02:58:03;;;;;;;13.57;12.17;;;;;;;11.38;65.79;93702.63;5010536;28;20206;-74
2021/09/19 03:00:29;;;;;;;14.87;11.90;;;10.30;99.90;;;11.34;65.95;93705.03;5015625;28;20228;-75
2021/09/19 03:02:55;;;;;;;13.47;12.07;;;10.20;99.90;;;11.38;65.70;93702.63;4998865;28;20208;-75
2021/09/19 03:05:21;;;;;;;11.67;10.57;;;10.30;99.90;;;11.38;65.69;93714.03;4983668;28;20329;-75
2021/09/19 03:07:49;;;;;;;11.63;10.43;;;12.00;99.90;;;11.30;66.22;93714.59;5014616;28;20231;-74
2021/09/19 03:10:16;;;;;;;10.97;9.87;;;10.30;99.90;;;11.25;66.05;93725.22;5014310;28;20300;-74
2021/09/19 03:12:44;;;;;;;11.53;10.33;;;10.10;99.90;;;11.28;66.30;93735.31;4994036;28;20221;-74
2021/09/19 03:15:13;;;;;;;12.27;10.03;;;10.50;99.90;;;11.27;65.93;93725.75;4992862;28;20251;-73
2021/09/19 03:17:40;;;;;;;11.37;10.27;;;10.60;99.90;;;11.24;66.42;93739.56;5008502;28;20208;-73
2021/09/19 03:20:10;;;;;;;11.43;10.10;;;10.20;99.90;;;11.18;66.17;93736.13;5008154;28;20228;-73
2021/09/19 03:22:40;;;;;;;12.17;10.47;;;10.10;99.90;;;11.11;66.31;93729.56;4992968;28;20213;-76
2021/09/19 03:25:10;;;;;;;11.73;10.53;;;10.10;99.90;;;11.13;66.09;93738.81;4976708;28;20315;-75
2021/09/19 03:27:38;;;;;;;12.07;10.67;;;9.90;99.90;;;11.08;66.55;93735.41;4976711;28;20224;-75
2021/09/19 03:30:10;;;;;;;11.90;10.23;;;10.10;99.90;;;11.11;66.49;93745.47;4991114;28;20230;-75
2021/09/19 03:32:36;;;;;;;10.63;9.63;;;10.50;99.90;;;11.09;66.15;93748.38;4977925;28;20590;-76
2021/09/19 03:35:03;;;;;;;13.70;11.17;;;9.90;99.90;;;11.14;66.42;93744.91;4993488;28;20853;-76
2021/09/19 03:37:29;;;;;;;13.40;12.10;;;10.20;99.90;;;11.13;66.77;93752.06;4976425;28;20209;-75
2021/09/19 03:39:55;;;;;;;14.93;13.30;;;;;;;11.25;66.60;93749.91;4976253;28;20223;-77
2021/09/19 03:42:21;;;;;;;15.03;11.90;;;9.90;99.90;;;11.36;66.84;93749.84;4990381;28;20218;-74
2021/09/19 03:44:52;;;;;;;12.13;10.93;;;10.10;99.90;;;11.51;66.95;93755.91;4990528;28;20230;-75
2021/09/19 03:47:19;;;;;;;15.93;10.90;;;10.50;99.90;;;11.54;66.64;93762.50;4976666;28;20696;-75
2021/09/19 03:49:45;;;;;;;12.17;10.97;;;10.40;99.90;;;11.56;66.89;93747.09;4977129;28;20248;-76
2021/09/19 03:52:11;;;;;;;16.00;11.50;;;10.80;99.90;;;11.47;66.74;93738.13;4991091;28;20246;-76
2021/09/19 03:54:37;;;;;;;15.00;13.20;;;10.30;99.90;;;11.33;67.19;93725.47;4975188;28;20976;-75
2021/09/19 03:57:03;;;;;;;16.03;14.33;;;10.20;99.90;;;11.31;67.04;93727.56;5010420;28;20283;-75
2021/09/19 03:59:29;;;;;;;16.73;14.50;;;10.60;99.90;;;11.33;67.24;93724.66;5006408;28;20752;-75
2021/09/19 04:01:54;;;;;;;16.10;14.40;;;10.10;99.90;;;11.30;66.97;93723.34;4990715;28;20227;-75
2021/09/19 04:04:20;;;;;;;18.87;16.60;;;10.00;99.90;;;11.31;67.39;93724.91;4992502;28;20633;-75
2021/09/19 04:06:48;;;;;;;16.73;14.40;;;;;;;11.38;67.73;93743.22;4989809;28;20239;-75
2021/09/19 04:09:14;;;;;;;15.93;12.93;;;10.20;99.90;;;11.37;67.40;93749.59;5009499;28;20224;-75
2021/09/19 04:11:40;;;;;;;16.23;12.70;;;10.30;99.90;;;11.31;67.20;93756.75;4983663;28;20236;-76
2021/09/19 04:14:06;;;;;;;13.80;12.23;;;10.70;99.90;;;11.27;67.47;93761.03;4991351;28;20258;-77
2021/09/19 04:16:32;;;;;;;12.70;11.40;;;10.60;99.90;;;11.33;67.47;93767.91;4992051;28;20225;-75
2021/09/19 04:18:58;;;;;;;13.90;12.43;;;10.30;99.90;;;11.37;67.71;93767.38;4989197;28;20910;-76
2021/09/19 04:21:24;;;;;;;13.27;11.60;;;;;;;11.39;67.59;93767.88;4989217;28;20231;-76
2021/09/19 04:23:50;;;;;;;12.47;11.17;;;;;;;11.40;67.85;93759.66;4991867;28;20370;-75
2021/09/19 04:26:19;;;;;;;12.90;10.50;;;10.40;99.90;;;11.45;67.85;93756.19;5006443;28;20221;-76
2021/09/19 04:28:45;;;;;;;13.60;10.87;;;;;;;11.48;67.88;93760.94;5009220;28;20317;-76
2021/09/19 04:31:11;;;;;;;13.07;11.30;;;10.50;99.90;;;11.35;68.13;93746.41;5006561;28;20310;-75
2021/09/19 04:33:39;;;;;;;13.03;11.80;;;10.50;99.90;;;11.31;67.96;93745.38;5002560;28;20749;-75
2021/09/19 04:36:05;;;;;;;12.93;11.60;;;10.50;99.90;;;11.29;68.22;93737.69;4991088;28;20225;-76
2021/09/19 04:38:31;;;;;;;12.30;11.07;;;10.10;99.90;;;11.31;68.38;93745.38;4973434;28;20259;-77
2021/09/19 04:40:59;;;;;;;12.97;10.43;;;10.60;99.90;;;11.35;68.17;93750.94;4992741;28;20228;-75
2021/09/19 04:43:25;;;;;;;11.63;10.23;;;10.20;99.90;;;11.40;68.42;93742.94;4991661;28;20281;-75
2021/09/19 04:45:53;;;;;;;12.63;9.67;;;10.50;99.90;;;11.46;68.21;93741.84;4992019;28;20304;-76
2021/09/19 04:48:19;;;;;;;11.60;10.50;;;10.30;99.90;;;11.44;68.12;93742.13;4976503;28;20623;-74
2021/09/19 04:50:46;;;;;;;12.20;10.90;;;10.50;99.90;;;11.54;68.28;93751.91;4991608;28;20234;-74
2021/09/19 04:53:12;;;;;;;11.53;10.33;;;10.40;99.90;;;11.63;68.12;93748.38;4975398;28;20252;-74
2021/09/19 04:55:40;;;;;;;10.90;9.80;;;10.60;99.90;;;11.65;68.48;93745.47;4975751;28;20257;-75
2021/09/19 04:58:05;;;;;;;11.60;10.40;;;10.80;99.90;;;11.68;68.24;93751.00;5004921;28;20223;-75
2021/09/19 05:00:39;;;;;;;11.43;9.90;;;10.90;99.90;;;11.77;68.40;93754.72;4975914;28;20286;-74
2021/09/19 05:03:07;;;;;;;11.03;9.30;;;11.20;99.90;;;11.80;68.38;93756.00;4976558;28;20224;-75
2021/09/19 05:05:33;;;;;;;10.40;9.40;;;11.10;99.90;;;11.91;68.86;93746.94;4992025;28;20225;-74
2021/09/19 05:07:59;;;;;;;9.50;8.60;;;11.00;99.90;;;11.96;68.50;93741.56;4973299;28;20573;-75
2021/09/19 05:10:28;;;;;;;11.07;9.73;;;11.20;99.90;;;12.08;68.57;93739.38;4987235;28;20241;-75
2021/09/19 05:12:53;;;;;;;9.63;8.63;;;11.20;99.90;;;12.20;68.80;93745.09;4990550;28;20218;-75
2021/09/19 05:15:22;;;;;;;10.40;8.57;;;11.50;99.90;;;12.31;68.77;93757.25;4991861;28;20219;-74
2021/09/19 05:17:49;;;;;;;9.80;8.57;;;;;;;12.38;68.81;93772.06;4991020;28;20254;-75
2021/09/19 05:20:17;;;;;;;9.40;8.53;;;11.50;99.90;;;12.49;69.09;93776.25;4979646;28;20609;-74
2021/09/19 05:22:42;;;;;;;10.40;9.30;;;11.60;99.90;;;12.49;68.79;93789.53;4979815;28;20221;-75
2021/09/19 05:25:09;;;;;;;12.50;11.20;;;11.30;99.90;;;12.60;69.17;93794.47;4989818;28;20320;-74
2021/09/19 05:27:34;;;;;;;11.47;10.27;;;11.40;99.90;;;12.68;69.35;93788.56;4978862;28;20211;-74
2021/09/19 05:30:03;;;;;;;12.93;11.57;;;11.80;99.90;;;12.84;69.12;93799.84;5011799;28;20263;-74
2021/09/19 05:32:29;;;;;;;12.90;11.60;;;11.80;99.90;;;12.93;69.20;93808.03;4975432;28;20271;-76
2021/09/19 05:34:55;;;;;;;12.87;10.50;;;11.90;99.90;;;12.99;69.55;93798.91;4994423;28;20233;-75
2021/09/19 05:37:21;;;;;;;12.13;10.83;;;12.10;99.90;;;13.02;69.44;93807.13;4994485;28;20238;-74
2021/09/19 05:39:52;;;;;;;11.83;10.53;;;11.90;99.90;;;13.08;69.50;93811.31;4997014;28;20215;-75
2021/09/19 05:42:18;;;;;;;11.93;10.80;;;;;;;13.20;69.43;93822.38;4964339;28;20302;-74
2021/09/19 05:44:44;;;;;;;11.80;10.50;;;;;;;13.24;69.48;93815.44;4989072;28;20234;-74
2021/09/19 05:47:10;;;;;;;11.30;10.13;;;11.90;99.90;;;13.23;69.34;93805.84;4977537;28;20214;-74
2021/09/19 05:49:40;;;;;;;11.27;10.07;;;12.30;99.90;;;13.32;69.23;93817.47;4990214;28;20289;-74
2021/09/19 05:52:07;;;;;;;11.17;9.93;;;;;;;13.30;69.63;93822.28;5010554;28;20314;-74
2021/09/19 05:54:35;;;;;;;11.20;9.27;;;12.20;99.90;;;13.27;69.55;93827.38;5012244;28;20671;-74
2021/09/19 05:57:01;;;;;;;10.30;9.30;;;12.30;99.90;;;13.24;69.75;93830.59;4959972;28;20744;-74
2021/09/19 05:59:28;;;;;;;10.83;9.83;;;12.30;99.90;;;13.22;69.50;93825.59;4976076;28;20216;-74
2021/09/19 06:01:57;;;;;;;10.33;9.33;;;;;;;13.22;69.60;93852.19;4993318;28;20216;-74
2021/09/19 06:04:23;;;;;;;9.93;9.03;;;13.00;99.90;;;13.16;69.59;93850.63;4975920;28;20238;-74
2021/09/19 06:06:49;;;;;;;10.73;8.67;;;12.30;99.90;;;13.17;69.51;93846.91;4993700;28;20610;-74
2021/09/19 06:09:17;;;;;;;10.50;9.60;;;12.10;99.90;;;13.16;69.41;93855.94;4993204;28;20245;-74
2021/09/19 06:11:48;;;;;;;10.17;9.27;;;12.70;99.90;;;13.14;69.68;93859.97;4991877;28;20223;-75
2021/09/19 06:14:13;;;;;;;10.87;9.73;;;12.30;99.90;;;13.11;69.70;93864.00;5006907;28;20687;-73
2021/09/19 06:16:39;;;;;;;10.57;9.57;;;11.80;99.90;;;13.08;69.84;93867.19;4989017;28;20214;-75
2021/09/19 06:19:06;;;;;;;10.50;9.40;;;;;;;13.07;69.80;93876.25;5007000;28;20377;-74
2021/09/19 06:21:34;;;;;;;11.20;10.03;;;;;;;13.03;69.86;93869.88;4976039;28;20263;-75
2021/09/19 06:24:00;;;;;;;11.50;10.37;;;12.20;99.90;;;13.03;69.54;93877.88;4980202;28;20237;-74
2021/09/19 06:26:26;;;;;;;11.50;10.30;;;;;;;13.05;69.77;93890.91;4988037;28;20723;-75
2021/09/19 06:28:53;;;;;;;12.07;10.23;;;;;;;12.97;70.05;93889.63;4990562;28;20854;-75
2021/09/19 06:31:24;;;;;;;12.43;11.13;;;11.40;99.90;;;12.97;69.45;93902.13;4991651;28;20338;-74
2021/09/19 06:33:50;;;;;;;13.37;10.97;;;12.00;99.90;;;12.98;70.11;93901.88;4991714;28;20219;-75
2021/09/19 06:36:16;;;;;;;11.53;10.33;;;;;;;12.90;69.65;93907.78;5007001;28;20231;-76
2021/09/19 06:38:42;;;;;;;11.20;10.10;;;11.90;99.90;;;12.96;69.71;93919.97;4986682;28;20680;-74
2021/09/19 06:41:10;;;;;;;11.80;10.60;;;11.70;99.90;;;12.89;69.92;93916.84;5010054;28;20582;-74
2021/09/19 06:43:35;;;;;;;13.47;10.80;;;11.90;99.90;;;12.82;70.01;93916.38;4987686;28;21027;-75
2021/09/19 06:46:03;;;;;;;11.43;10.33;;;12.60;99.90;;;12.81;69.79;93930.72;4973030;28;20212;-75
2021/09/19 06:48:32;;;;;;;12.90;10.80;;;12.10;99.90;;;12.84;69.64;93938.94;4985237;28;20232;-75
2021/09/19 06:50:58;;;;;;;12.03;10.47;;;12.10;99.90;;;12.82;69.85;93930.47;4992696;28;20235;-74
2021/09/19 06:53:23;;;;;;;12.63;11.07;;;12.10;99.90;;;12.86;69.55;93947.44;4991053;28;20313;-74
2021/09/19 06:55:49;;;;;;;11.53;10.33;;;12.30;99.90;;;12.90;69.56;93934.38;4996022;28;20209;-71
2021/09/19 06:58:16;;;;;;;10.97;9.93;;;;;;;12.97;69.98;93928.75;5006883;28;20239;-75
2021/09/19 07:00:44;;;;;;;11.17;10.07;;;12.00;99.90;;;12.99;70.25;93931.94;5007021;28;20954;-76
2021/09/19 07:03:10;;;;;;;11.70;10.57;;;11.60;99.90;;;13.02;69.68;93944.69;4974701;28;20209;-74
2021/09/19 07:05:36;;;;;;;13.43;11.13;;;12.20;99.90;;;13.07;69.73;93934.78;4975117;28;20308;-75
2021/09/19 07:08:03;;;;;;;11.90;10.70;;;;;;;13.13;69.81;93936.34;4993058;28;20283;-72
2021/09/19 07:10:33;;;;;;;10.83;9.73;;;12.40;99.90;;;13.11;70.12;93949.16;4982821;28;20224;-70
2021/09/19 07:13:04;;;;;;;11.20;10.13;;;12.30;99.90;;;13.12;70.13;93945.44;4966699;28;20330;-73
2021/09/19 07:15:32;;;;;;;12.10;10.90;;;12.10;99.90;;;13.12;70.02;93942.75;4969240;28;20226;-72
2021/09/19 07:17:58;;;;;;;11.43;10.33;;;12.70;99.90;;;13.18;70.26;93943.50;5005151;28;20681;-75
2021/09/19 07:20:26;;;;;;;13.23;11.37;;;12.20;99.90;;;13.18;70.07;93949.63;4959359;28;20231;-74
2021/09/19 07:22:53;;;;;;;11.60;10.40;;;12.50;99.90;;;13.21;70.22;93946.41;4977573;28;20232;-71
2021/09/19 07:25:19;;;;;;;10.70;9.60;;;12.00;99.90;;;13.22;70.50;93952.53;5003713;28;20281;-72
2021/09/19 07:27:48;;;;;;;9.27;8.30;;;11.70;99.90;;;13.21;70.14;93959.72;4988495;28;20221;-75
2021/09/19 07:30:14;;;;;;;8.57;7.77;;;12.30;99.90;;;13.25;70.21;93954.63;4990680;28;20291;-73
2021/09/19 07:32:43;;;;;;;10.67;7.50;;;12.30;99.90;;;13.29;70.56;93964.44;4969346;28;20707;-76
2021/09/19 07:35:09;;;;;;;7.37;6.57;;;12.70;99.90;;;13.28;70.45;93964.72;4970826;28;20223;-75
2021/09/19 07:37:37;;;;;;;6.93;6.20;;;13.20;99.90;;;13.33;70.38;93965.44;4990991;28;20228;-75
2021/09/19 07:40:10;;;;;;;5.80;5.20;;;12.60;99.90;;;13.36;70.40;93966.78;5007240;28;20225;-75
2021/09/19 07:42:36;;;;;;;5.40;4.30;;;12.00;99.90;;;13.36;70.26;93964.13;5017003;28;20310;-74
2021/09/19 07:45:03;;;;;;;4.70;4.00;;;12.30;99.90;;;13.35;70.68;93973.19;5001277;28;20215;-73
2021/09/19 07:47:30;;;;;;;4.57;3.40;;;12.20;99.90;;;13.39;70.49;93976.88;4982935;28;20232;-74
2021/09/19 07:49:56;;;;;;;3.63;3.33;;;12.20;99.90;;;13.39;70.69;93978.72;5000903;28;20244;-74
2021/09/19 07:52:26;;;;;;;6.13;3.17;;;13.10;99.90;;;13.41;70.70;93985.38;4977186;28;21032;-74
2021/09/19 07:54:54;;;;;;;4.57;3.00;;;13.00;99.90;;;13.39;70.28;93982.19;4988022;28;20759;-74
2021/09/19 07:57:28;;;;;;;1.87;1.60;;;12.30;99.90;;;13.34;70.35;93992.88;4961234;28;20226;-75
2021/09/19 07:59:57;;;;;;;1.73;1.63;;;12.50;99.90;;;13.30;70.65;93997.97;5005147;28;20786;-75
2021/09/19 08:02:23;;;;;;;2.63;1.60;;;12.40;99.90;;;13.28;70.77;93997.44;4985553;28;20222;-74
2021/09/19 08:04:52;;;;;;;1.50;1.40;;;11.90;99.90;;;13.18;70.42;94012.69;4968011;28;20730;-73
2021/09/19 08:07:21;;;;;;;1.10;1.00;;;13.20;99.90;;;13.15;70.74;94006.06;4988186;28;20260;-74
2021/09/19 08:09:47;;;;;;;1.00;0.90;;;12.00;99.90;;;13.07;70.56;94011.13;4984564;28;20221;-74
2021/09/19 08:12:13;;;;;;;1.00;1.00;;;12.00;99.90;;;12.98;70.77;94012.81;5004718;28;20237;-71
2021/09/19 08:14:39;;;;;;;1.27;0.70;;;11.70;99.90;;;12.93;70.49;94018.94;4969811;28;20246;-71
2021/09/19 08:17:05;;;;;;;1.03;0.93;;;11.60;99.90;;;12.91;70.90;94028.28;4967863;28;20221;-73
2021/09/19 08:19:32;;;;;;;1.73;0.90;;;11.80;99.90;;;12.87;71.19;94033.34;4982782;28;20224;-73
2021/09/19 08:21:58;;;;;;;0.83;0.70;;;12.60;99.90;;;12.82;70.94;94031.53;4982362;28;20294;-75
2021/09/19 08:24:29;;;;;;;1.07;0.70;;;12.00;99.90;;;12.84;70.73;94041.88;4996393;28;20252;-75
2021/09/19 08:26:57;;;;;;;0.97;0.77;;;11.60;99.90;;;12.76;71.10;94035.25;4969836;28;20562;-76
2021/09/19 08:29:28;;;;;;;0.60;0.50;;;11.90;99.90;;;12.80;70.95;94056.78;5000074;28;20210;-76
2021/09/19 08:31:57;;;;;;;0.60;0.50;;;11.70;99.90;;;12.75;71.29;94035.56;4968597;28;20238;-75
2021/09/19 08:34:22;;;;;;;1.87;0.90;;;12.00;99.90;;;12.84;71.33;94041.88;4967495;28;20342;-75
2021/09/19 08:36:48;;;;;;;1.23;0.90;;;12.60;99.90;;;12.88;71.15;94031.50;4965979;28;20307;-75
2021/09/19 08:39:14;;;;;;;1.17;0.90;;;12.20;99.90;;;12.93;71.50;94040.22;4983386;28;20216;-75
2021/09/19 08:41:41;;;;;;;0.70;0.70;;;11.90;99.90;;;12.94;71.41;94036.50;4980403;28;20227;-74
2021/09/19 08:44:12;;;;;;;1.30;0.90;;;11.70;99.90;;;12.99;71.53;94041.00;4962428;28;20497;-74
2021/09/19 08:46:40;;;;;;;0.70;0.70;;;12.70;99.90;;;12.93;71.29;94029.59;4995666;28;20366;-73
2021/09/19 08:49:07;;;;;;;0.93;0.60;;;12.10;99.90;;;12.97;71.83;94043.94;4983661;28;20224;-74
2021/09/19 08:51:33;;;;;;;1.13;0.60;;;12.10;99.90;;;12.97;71.69;94035.16;4967179;28;20215;-72
2021/09/19 08:54:01;;;;;;;1.03;0.60;;;11.40;99.90;;;12.98;71.72;94034.09;4969989;28;20226;-77
2021/09/19 08:56:27;;;;;;;0.47;0.47;;;11.70;99.90;;;13.02;71.87;94035.13;4985701;28;20257;-74
2021/09/19 08:58:56;;;;;;;1.07;0.77;;;12.00;99.90;;;13.12;71.57;94045.75;4983725;28;20223;-72
2021/09/19 09:01:25;;;;;;;1.47;0.60;;;12.10;99.90;;;13.10;71.61;94045.22;5007556;28;20254;-75
2021/09/19 09:03:51;;;;;;;0.70;0.70;;;;;;;13.05;71.52;94045.22;4989225;28;20213;-75
2021/09/19 09:06:19;;;;;;;1.77;0.60;;;11.70;99.90;;;13.11;71.56;94044.94;4970403;28;20226;-71
2021/09/19 09:08:47;;;;;;;0.70;0.60;;;11.90;99.90;;;13.10;71.66;94035.38;4987763;28;20222;-73
2021/09/19 09:11:13;;;;;;;0.73;0.50;;;13.00;99.90;;;13.16;71.90;94047.56;4967712;28;20212;-72
2021/09/19 09:13:41;;;;;;;0.60;0.60;;;11.80;99.90;;;13.17;72.13;94043.03;4985659;28;20245;-72
2021/09/19 09:16:17;;;;;;;1.43;0.60;;;12.10;99.90;;;13.23;71.63;94055.22;4991609;28;20224;-74
2021/09/19 09:18:45;;;;;;;1.53;0.90;;;12.10;99.90;;;13.21;71.74;94038.75;4985380;28;20214;-75
2021/09/19 09:21:28;;;;;;;1.17;0.63;;;12.00;99.90;;;13.23;71.76;94033.94;4990185;28;20216;-74
2021/09/19 09:24:00;;;;;;;1.30;1.00;;;12.50;99.90;;;13.33;72.21;94042.66;4994376;28;20273;-75
2021/09/19 09:26:37;;;;;;;0.80;0.80;;;12.40;99.90;;;13.46;71.90;94041.25;4988688;28;20215;-74
2021/09/19 09:29:07;;;;;;;0.97;0.80;;;12.20;99.90;;;13.52;71.83;94032.13;4987745;28;20769;-75
2021/09/19 09:31:45;;;;;;;1.67;0.87;;;12.80;99.90;;;13.74;72.40;94037.78;4996893;28;20219;-73
2021/09/19 09:34:16;;;;;;;0.87;0.77;;;13.40;99.90;;;13.85;72.18;94035.84;4991053;28;20216;-75
2021/09/19 09:37:02;;;;;;;1.23;1.00;;;13.40;99.90;;;14.00;72.19;94035.66;4995114;28;20212;-74
2021/09/19 09:39:43;;;;;;;1.23;0.70;;;13.20;99.90;;;14.10;72.50;94051.56;5003910;28;20255;-74
2021/09/19 09:42:17;;;;;;;1.17;0.80;;;12.40;99.90;;;14.22;72.43;94040.53;4991251;28;20312;-74
2021/09/19 09:44:53;;;;;;;0.50;0.50;;;13.20;99.90;;;14.21;72.36;94047.72;4990060;28;20257;-72
2021/09/19 09:47:28;;;;;;;1.50;0.90;;;14.00;99.90;;;14.17;72.36;94041.38;4978266;28;20247;-74
2021/09/19 09:50:03;;;;;;;0.50;0.40;;;14.10;99.90;;;14.08;72.19;94048.41;4976109;28;20214;-73
2021/09/19 09:52:36;;;;;;;0.77;0.50;;;13.80;99.90;;;14.04;72.15;94047.38;4976110;28;20229;-73
2021/09/19 09:55:08;;;;;;;1.00;0.60;;;12.80;99.90;;;13.99;72.48;94047.44;4973409;28;20305;-74
2021/09/19 09:57:34;;;;;;;0.50;0.40;;;13.80;99.90;;;13.94;72.49;94039.47;4994540;28;20212;-74
2021/09/19 10:00:08;;;;;;;0.80;0.40;;;12.90;99.90;;;13.99;72.23;94055.41;5006115;28;20220;-73
2021/09/19 10:02:36;;;;;;;3.87;1.00;;;13.30;99.90;;;14.06;71.96;94049.75;4994570;28;20220;-74
2021/09/19 10:05:09;;;;;;;0.83;0.50;;;13.80;99.90;;;14.13;71.97;94053.69;5010886;28;20223;-73
2021/09/19 10:07:40;;;;;;;0.70;0.60;;;14.20;99.90;;;14.16;72.04;94039.78;4986919;28;20626;-73
2021/09/19 10:10:14;;;;;;;0.67;0.60;;;13.20;99.90;;;14.18;72.18;94037.63;4973075;28;20240;-74
2021/09/19 10:12:43;;;;;;;1.10;0.30;;;13.30;99.90;;;14.23;71.98;94040.25;4988650;28;20270;-74
2021/09/19 10:15:10;;;;;;;1.10;0.50;;;14.00;99.90;;;14.23;72.27;94040.25;4990983;28;20251;-73
2021/09/19 10:17:39;;;;;;;1.07;0.20;;;13.30;99.90;;;14.25;72.08;94038.09;4993182;28;20313;-75
2021/09/19 10:20:21;;;;;;;0.70;0.40;;;14.00;99.90;;;14.21;72.27;94037.06;4999673;28;20252;-74